Time;durP1;ratioP1;P1;durP2;ratioP2;P2;SDS_P1;SDS_P2;PMS_P1;PMS_P2;Temp;Humidity;BMP_temperature;BMP_pressure;BME280_temperature;BME280_humidity;BME280_pressure;Samples;Min_cycle;Max_cycle;Signal;HPM_P1;HPM_P2
2022/07/25 00:02:23;;;;;;;8.18;7.43;;;27.10;1.00;;;;;;5091687;28;20157;-79
2022/07/25 00:04:48;;;;;;;10.57;8.13;;;27.10;1.00;;;;;;5092790;28;20024;-79
2022/07/25 00:07:14;;;;;;;8.93;8.13;;;27.10;1.00;;;;;;5092336;28;20400;-79
2022/07/25 00:09:40;;;;;;;8.40;7.60;;;27.10;1.00;;;;;;5093641;28;20028;-79
2022/07/25 00:12:05;;;;;;;11.43;7.97;;;27.00;1.00;;;;;;5091280;28;20043;-79
2022/07/25 00:14:31;;;;;;;9.38;7.68;;;27.00;1.00;;;;;;5092093;28;20047;-79
2022/07/25 00:16:57;;;;;;;9.50;7.40;;;27.10;1.00;;;;;;5091787;28;20035;-79
2022/07/25 00:19:22;;;;;;;8.73;7.75;;;27.10;1.00;;;;;;5091473;28;20500;-78
2022/07/25 00:21:49;;;;;;;9.40;8.18;;;27.00;1.00;;;;;;5093644;28;20028;-79
2022/07/25 00:24:14;;;;;;;8.60;7.75;;;27.00;1.00;;;;;;5091409;28;20469;-79
2022/07/25 00:26:40;;;;;;;9.30;7.70;;;27.10;1.00;;;;;;5089660;28;20111;-79
2022/07/25 00:29:05;;;;;;;8.18;7.40;;;27.00;1.00;;;;;;5091027;28;20055;-79
2022/07/25 00:31:31;;;;;;;9.15;7.38;;;27.00;1.00;;;;;;5092130;28;20387;-79
2022/07/25 00:33:57;;;;;;;8.30;7.60;;;27.00;1.00;;;;;;5092862;28;20075;-79
2022/07/25 00:36:22;;;;;;;12.68;7.90;;;26.90;1.00;;;;;;5092234;28;20103;-79
2022/07/25 00:38:48;;;;;;;8.63;7.85;;;26.90;1.00;;;;;;5091192;28;20036;-78
2022/07/25 00:41:13;;;;;;;9.70;7.72;;;26.80;1.00;;;;;;5091086;28;20024;-79
2022/07/25 00:43:43;;;;;;;9.13;8.00;;;26.80;1.00;;;;;;5091303;28;20103;-79
2022/07/25 00:46:16;;;;;;;9.02;8.13;;;26.70;1.00;;;;;;5091623;28;20357;-79
2022/07/25 00:48:42;;;;;;;9.30;7.85;;;26.70;1.00;;;;;;5091522;28;20408;-79
2022/07/25 00:51:09;;;;;;;8.95;8.10;;;26.70;1.00;;;;;;5090765;28;20031;-78
2022/07/25 00:53:37;;;;;;;8.32;7.57;;;26.80;1.00;;;;;;5091491;28;20028;-79
2022/07/25 00:56:04;;;;;;;9.77;8.80;;;26.70;1.00;;;;;;5090424;28;20102;-79
2022/07/25 00:58:30;;;;;;;8.93;8.02;;;26.70;1.00;;;;;;5090778;28;20059;-79
2022/07/25 01:00:55;;;;;;;9.43;8.25;;;26.70;1.00;;;;;;5092376;28;20056;-79
2022/07/25 01:03:21;;;;;;;9.13;8.25;;;26.70;1.00;;;;;;5091494;28;20107;-79
2022/07/25 01:05:49;;;;;;;8.98;8.10;;;26.70;1.00;;;;;;5089222;28;20035;-79
2022/07/25 01:08:16;;;;;;;9.73;8.48;;;26.70;1.00;;;;;;5090575;28;20117;-79
2022/07/25 01:10:41;;;;;;;9.20;8.40;;;26.70;1.00;;;;;;5090408;28;20513;-79
2022/07/25 01:13:07;;;;;;;8.63;7.72;;;26.70;1.00;;;;;;5091309;28;20024;-79
2022/07/25 01:15:33;;;;;;;11.23;8.43;;;26.60;1.00;;;;;;5092587;28;20054;-79
2022/07/25 01:17:58;;;;;;;9.82;8.50;;;26.60;1.00;;;;;;5090339;28;20048;-79
2022/07/25 01:20:25;;;;;;;9.05;8.25;;;26.60;1.00;;;;;;5090347;28;20118;-79
2022/07/25 01:22:52;;;;;;;8.80;7.85;;;26.60;1.00;;;;;;5090257;28;20070;-79
2022/07/25 01:25:18;;;;;;;8.82;7.90;;;26.60;1.00;;;;;;5089961;28;20409;-79
2022/07/25 01:27:46;;;;;;;8.93;8.13;;;26.50;1.00;;;;;;5092043;28;20035;-79
2022/07/25 01:30:13;;;;;;;9.68;8.18;;;26.50;1.00;;;;;;5089569;28;20048;-79
2022/07/25 01:32:39;;;;;;;9.55;8.65;;;26.50;1.00;;;;;;5090034;28;20032;-79
2022/07/25 01:35:06;;;;;;;9.02;8.13;;;26.50;1.00;;;;;;5090175;28;20035;-79
2022/07/25 01:37:32;;;;;;;8.60;7.80;;;26.50;1.00;;;;;;5090046;28;20036;-79
2022/07/25 01:39:57;;;;;;;10.43;8.00;;;26.40;1.00;;;;;;5091891;28;20118;-78
2022/07/25 01:42:23;;;;;;;9.38;8.43;;;26.40;1.00;;;;;;5088906;28;20028;-79
2022/07/25 01:44:49;;;;;;;9.35;8.40;;;26.50;1.00;;;;;;5088056;28;20028;-79
2022/07/25 01:47:16;;;;;;;9.05;8.20;;;26.40;1.00;;;;;;5090277;28;20028;-79
2022/07/25 01:49:43;;;;;;;8.88;8.10;;;26.40;1.00;;;;;;5090122;28;20044;-79
2022/07/25 01:52:09;;;;;;;8.88;8.18;;;26.30;1.00;;;;;;5090280;28;20020;-79
2022/07/25 01:54:34;;;;;;;9.35;8.48;;;26.30;1.00;;;;;;5091427;28;20020;-78
2022/07/25 01:57:00;;;;;;;9.30;8.13;;;26.30;1.00;;;;;;5089599;28;20051;-79
2022/07/25 01:59:26;;;;;;;9.18;8.27;;;26.30;1.00;;;;;;5089852;28;20068;-79
2022/07/25 02:01:51;;;;;;;9.63;7.60;;;26.30;1.00;;;;;;5090543;28;20020;-79
2022/07/25 02:04:17;;;;;;;8.43;7.63;;;26.30;1.00;;;;;;5089585;28;20411;-79
2022/07/25 02:06:43;;;;;;;8.70;7.80;;;26.20;1.00;;;;;;5091790;28;20536;-79
2022/07/25 02:09:08;;;;;;;10.15;8.13;;;26.20;1.00;;;;;;5089670;28;20043;-79
2022/07/25 02:11:35;;;;;;;8.57;7.72;;;26.30;1.00;;;;;;5089437;28;20085;-79
2022/07/25 02:14:01;;;;;;;8.95;8.05;;;26.20;1.00;;;;;;5089140;28;20081;-79
2022/07/25 02:16:27;;;;;;;8.55;7.68;;;26.20;1.00;;;;;;5089955;28;20021;-79
2022/07/25 02:18:53;;;;;;;9.73;8.35;;;26.20;1.00;;;;;;5091600;28;20370;-79
2022/07/25 02:21:18;;;;;;;8.60;7.72;;;26.20;1.00;;;;;;5089317;28;20039;-80
2022/07/25 02:23:44;;;;;;;8.35;7.43;;;26.30;1.00;;;;;;5088441;28;20107;-79
2022/07/25 02:26:11;;;;;;;8.93;7.65;;;26.20;1.00;;;;;;5089163;28;20024;-79
2022/07/25 02:28:36;;;;;;;8.80;8.10;;;26.30;1.00;;;;;;5088986;28;20094;-79
2022/07/25 02:31:02;;;;;;;8.77;7.60;;;26.30;1.00;;;;;;5090691;28;20488;-79
2022/07/25 02:33:28;;;;;;;8.93;7.82;;;26.30;1.00;;;;;;5090240;28;20345;-79
2022/07/25 02:35:54;;;;;;;8.20;7.47;;;26.40;1.00;;;;;;5089798;28;20088;-79
2022/07/25 02:38:20;;;;;;;8.57;7.57;;;26.30;1.00;;;;;;5089896;28;20522;-79
2022/07/25 02:40:48;;;;;;;9.02;7.40;;;26.30;1.00;;;;;;5093359;28;20488;-79
2022/07/25 02:43:14;;;;;;;9.48;7.63;;;26.20;1.00;;;;;;5093204;28;20055;-79
2022/07/25 02:45:39;;;;;;;8.00;7.30;;;26.20;1.00;;;;;;5095364;28;20114;-79
2022/07/25 02:48:05;;;;;;;9.30;7.18;;;26.20;1.00;;;;;;5093398;28;20123;-79
2022/07/25 02:50:31;;;;;;;8.57;7.38;;;26.40;1.00;;;;;;5093392;28;20024;-79
2022/07/25 02:52:57;;;;;;;9.02;7.50;;;26.30;1.00;;;;;;5093080;28;20035;-79
2022/07/25 02:55:22;;;;;;;8.27;7.43;;;26.20;1.00;;;;;;5093334;28;20029;-79
2022/07/25 02:57:48;;;;;;;8.02;7.28;;;26.20;1.00;;;;;;5095333;28;20028;-79
2022/07/25 03:00:14;;;;;;;8.32;7.53;;;26.10;1.00;;;;;;5092892;28;20107;-79
2022/07/25 03:02:40;;;;;;;8.00;7.30;;;26.10;1.00;;;;;;5073666;28;20024;-79
2022/07/25 03:05:07;;;;;;;8.43;7.38;;;26.20;1.00;;;;;;5092774;28;20042;-79
2022/07/25 03:07:34;;;;;;;7.82;7.13;;;26.20;1.00;;;;;;5092550;28;20028;-79
2022/07/25 03:09:59;;;;;;;8.07;7.03;;;26.10;1.00;;;;;;5094422;28;20391;-79
2022/07/25 03:12:25;;;;;;;8.00;7.20;;;26.10;1.00;;;;;;5093654;28;20036;-78
2022/07/25 03:14:51;;;;;;;8.20;7.40;;;26.10;1.00;;;;;;5093000;28;20511;-78
2022/07/25 03:17:16;;;;;;;8.10;7.25;;;26.00;1.00;;;;;;5074708;28;20213;-79
2022/07/25 03:19:42;;;;;;;7.70;7.00;;;26.00;1.00;;;;;;5092594;28;20035;-79
2022/07/25 03:22:08;;;;;;;8.43;7.70;;;25.90;1.00;;;;;;5092750;28;20072;-79
2022/07/25 03:24:33;;;;;;;8.73;7.47;;;25.90;1.00;;;;;;5095187;28;20028;-79
2022/07/25 03:26:59;;;;;;;8.63;7.30;;;25.90;1.00;;;;;;5092106;28;20065;-79
2022/07/25 03:29:25;;;;;;;8.55;7.30;;;25.80;1.00;;;;;;5073969;28;20138;-78
2022/07/25 03:31:50;;;;;;;8.57;7.68;;;25.90;1.00;;;;;;5092442;28;20462;-79
2022/07/25 03:34:16;;;;;;;8.05;7.25;;;25.80;1.00;;;;;;5093354;28;20035;-79
2022/07/25 03:36:41;;;;;;;9.07;8.00;;;25.90;1.00;;;;;;5092948;28;20016;-79
2022/07/25 03:39:07;;;;;;;9.07;8.23;;;25.80;1.00;;;;;;5092051;28;20074;-79
2022/07/25 03:41:33;;;;;;;9.10;7.78;;;25.80;1.00;;;;;;5090534;28;20073;-79
2022/07/25 03:43:58;;;;;;;7.95;7.20;;;26.00;1.00;;;;;;5092542;28;20420;-79
2022/07/25 03:46:24;;;;;;;8.73;7.82;;;25.90;1.00;;;;;;5092622;28;20020;-79
2022/07/25 03:48:49;;;;;;;8.13;7.35;;;25.90;1.00;;;;;;5094073;28;20127;-78
2022/07/25 03:51:15;;;;;;;8.68;7.88;;;25.80;1.00;;;;;;5092475;28;20032;-79
2022/07/25 03:56:25;;;;;;;8.68;7.90;;;25.80;1.00;;;;;;5092030;28;20035;-79
2022/07/25 03:58:50;;;;;;;9.07;7.90;;;25.80;1.00;;;;;;5091972;28;20024;-79
2022/07/25 04:01:16;;;;;;;8.55;7.55;;;25.70;1.00;;;;;;5092356;28;20476;-79
2022/07/25 04:03:41;;;;;;;9.23;7.53;;;25.70;1.00;;;;;;5093811;28;20106;-79
2022/07/25 04:06:07;;;;;;;9.68;7.68;;;25.70;1.00;;;;;;5091570;28;20479;-79
2022/07/25 04:08:33;;;;;;;10.70;7.88;;;25.80;1.00;;;;;;5091643;28;20131;-78
2022/07/25 04:10:58;;;;;;;8.27;7.53;;;25.80;1.00;;;;;;5073728;28;20055;-79
2022/07/25 04:13:24;;;;;;;7.85;7.25;;;25.80;1.00;;;;;;5091895;28;20020;-78
2022/07/25 04:15:50;;;;;;;8.38;7.57;;;25.90;1.00;;;;;;5089714;28;20039;-79
2022/07/25 04:18:16;;;;;;;8.82;8.02;;;25.80;1.00;;;;;;5092014;28;20025;-79
2022/07/25 04:20:41;;;;;;;9.70;7.93;;;25.80;1.00;;;;;;5090530;28;20086;-78
2022/07/25 04:23:07;;;;;;;8.60;7.85;;;25.80;1.00;;;;;;5091871;28;20036;-79
2022/07/25 04:25:33;;;;;;;10.98;7.93;;;25.80;1.00;;;;;;5091703;28;20020;-79
2022/07/25 04:27:58;;;;;;;8.77;7.75;;;25.80;1.00;;;;;;5092584;28;20036;-79
2022/07/25 04:30:24;;;;;;;8.93;8.02;;;25.80;1.00;;;;;;5092101;28;20032;-79
2022/07/25 04:32:49;;;;;;;8.25;7.55;;;25.80;1.00;;;;;;5090983;28;20027;-78
2022/07/25 04:35:15;;;;;;;9.02;7.78;;;25.70;1.00;;;;;;5091289;28;20053;-78
2022/07/25 04:37:40;;;;;;;8.90;8.00;;;25.70;1.00;;;;;;5091979;28;20077;-78
2022/07/25 04:40:07;;;;;;;8.70;7.78;;;25.70;1.00;;;;;;5092096;28;20053;-77
2022/07/25 04:42:33;;;;;;;8.63;7.45;;;25.70;1.00;;;;;;5093470;28;20033;-79
2022/07/25 04:44:59;;;;;;;8.98;7.72;;;25.70;1.00;;;;;;5090962;28;20040;-79
2022/07/25 04:47:24;;;;;;;9.90;8.90;;;25.80;1.00;;;;;;5090849;28;20050;-79
2022/07/25 04:49:50;;;;;;;9.00;8.10;;;25.80;1.00;;;;;;5091371;28;20050;-79
2022/07/25 04:52:16;;;;;;;8.70;8.00;;;25.70;1.00;;;;;;5090852;28;20036;-79
2022/07/25 04:54:41;;;;;;;9.07;8.10;;;25.70;1.00;;;;;;5092917;28;20035;-79
2022/07/25 04:57:07;;;;;;;10.30;7.95;;;25.70;1.00;;;;;;5091252;28;20016;-79
2022/07/25 04:59:33;;;;;;;8.65;7.85;;;25.80;1.00;;;;;;5088780;28;20056;-80
2022/07/25 05:01:58;;;;;;;9.77;8.57;;;25.80;1.00;;;;;;5089537;28;20092;-80
2022/07/25 05:04:24;;;;;;;8.65;7.95;;;25.90;1.00;;;;;;5091735;28;20036;-80
2022/07/25 05:06:49;;;;;;;8.80;7.80;;;25.90;1.00;;;;;;5092647;28;20019;-79
2022/07/25 05:09:15;;;;;;;9.38;8.23;;;26.00;1.00;;;;;;5090210;28;20031;-79
2022/07/25 05:11:40;;;;;;;8.20;7.50;;;26.00;1.00;;;;;;5072684;28;20043;-79
2022/07/25 05:14:06;;;;;;;8.13;7.43;;;26.00;1.00;;;;;;5090350;28;20051;-79
2022/07/25 05:16:32;;;;;;;10.93;8.38;;;26.00;1.00;;;;;;5090202;28;20028;-79
2022/07/25 05:18:57;;;;;;;8.77;7.90;;;26.00;1.00;;;;;;5091668;28;20530;-78
2022/07/25 05:21:23;;;;;;;9.25;8.18;;;26.20;1.00;;;;;;5091544;28;20063;-79
2022/07/25 05:23:48;;;;;;;8.70;7.90;;;26.10;1.00;;;;;;5090177;28;20564;-79
2022/07/25 05:26:14;;;;;;;8.68;7.70;;;26.20;1.00;;;;;;5090337;28;20030;-79
2022/07/25 05:28:39;;;;;;;9.07;8.18;;;26.20;1.00;;;;;;5089665;28;20059;-80
2022/07/25 05:31:05;;;;;;;9.38;8.38;;;26.20;1.00;;;;;;5090602;28;20482;-79
2022/07/25 05:33:32;;;;;;;9.50;7.68;;;26.30;1.00;;;;;;5090788;28;20070;-80
2022/07/25 05:35:58;;;;;;;9.38;8.40;;;26.40;1.00;;;;;;5090375;28;20020;-80
2022/07/25 05:38:23;;;;;;;12.68;8.60;;;26.40;1.00;;;;;;5088959;28;20035;-80
2022/07/25 05:40:51;;;;;;;8.77;7.75;;;26.30;1.00;;;;;;5090081;28;20024;-80
2022/07/25 05:43:17;;;;;;;22.25;10.18;;;26.40;1.00;;;;;;5090241;28;20052;-80
2022/07/25 05:45:43;;;;;;;13.20;8.50;;;26.50;1.00;;;;;;5091573;28;20032;-80
2022/07/25 05:48:08;;;;;;;17.80;9.07;;;26.40;1.00;;;;;;5089558;28;20345;-81
2022/07/25 05:50:36;;;;;;;48.13;12.85;;;26.40;1.00;;;;;;5090090;28;20115;-81
2022/07/25 05:53:01;;;;;;;26.15;9.93;;;26.50;1.00;;;;;;5089600;28;20427;-81
2022/07/25 05:55:27;;;;;;;12.95;8.65;;;26.50;1.00;;;;;;5090830;28;20086;-81
2022/07/25 05:57:53;;;;;;;14.50;8.63;;;26.50;1.00;;;;;;5092325;28;20081;-81
2022/07/25 06:00:18;;;;;;;10.25;8.35;;;26.60;1.00;;;;;;5089455;28;20086;-81
2022/07/25 06:02:44;;;;;;;8.85;7.95;;;26.60;1.00;;;;;;5089198;28;20032;-80
2022/07/25 06:05:09;;;;;;;9.95;7.82;;;26.60;1.00;;;;;;5090007;28;20039;-80
2022/07/25 06:07:35;;;;;;;8.48;7.63;;;26.70;1.00;;;;;;5089664;28;20095;-80
2022/07/25 06:10:01;;;;;;;8.85;8.02;;;26.80;1.00;;;;;;5090594;28;20066;-80
2022/07/25 06:12:26;;;;;;;9.48;8.52;;;26.80;1.00;;;;;;5090973;28;20016;-80
2022/07/25 06:14:52;;;;;;;8.52;7.65;;;26.80;1.00;;;;;;5089201;28;20487;-80
2022/07/25 06:17:18;;;;;;;8.05;7.35;;;26.90;1.00;;;;;;5088074;28;20055;-80
2022/07/25 06:19:44;;;;;;;9.32;8.02;;;27.00;1.00;;;;;;5089480;28;20111;-79
2022/07/25 06:22:10;;;;;;;10.07;8.40;;;27.10;1.00;;;;;;5089864;28;20032;-79
2022/07/25 06:24:35;;;;;;;12.43;7.90;;;27.10;1.00;;;;;;5091656;28;20489;-79
2022/07/25 06:27:01;;;;;;;8.95;8.02;;;27.10;1.00;;;;;;5089056;28;20032;-80
2022/07/25 06:29:27;;;;;;;9.43;8.15;;;27.10;1.00;;;;;;5088806;28;20076;-80
2022/07/25 06:31:52;;;;;;;9.10;8.20;;;27.20;1.00;;;;;;5089571;28;20114;-80
2022/07/25 06:34:18;;;;;;;10.02;7.93;;;27.20;1.00;;;;;;5089717;28;20039;-80
2022/07/25 06:36:44;;;;;;;9.77;8.38;;;27.30;1.00;;;;;;5092198;28;20076;-80
2022/07/25 06:39:09;;;;;;;8.98;8.07;;;27.40;1.00;;;;;;5089166;28;20118;-80
2022/07/25 06:41:36;;;;;;;9.70;8.30;;;27.50;1.00;;;;;;5089670;28;20024;-80
2022/07/25 06:44:02;;;;;;;9.55;8.00;;;27.60;1.00;;;;;;5089092;28;20162;-80
2022/07/25 06:46:30;;;;;;;8.50;7.63;;;27.60;1.00;;;;;;5089278;28;20096;-79
2022/07/25 06:48:56;;;;;;;10.00;8.18;;;27.70;1.00;;;;;;5091061;28;20117;-80
2022/07/25 06:51:22;;;;;;;9.18;8.32;;;27.80;1.00;;;;;;5090522;28;20086;-80
2022/07/25 06:53:48;;;;;;;9.02;8.18;;;27.90;1.00;;;;;;5089155;28;20103;-79
2022/07/25 06:56:13;;;;;;;9.10;8.20;;;27.90;1.00;;;;;;5087752;28;20115;-80
2022/07/25 06:58:39;;;;;;;9.32;8.52;;;28.00;1.00;;;;;;5087765;28;20016;-80
2022/07/25 07:01:05;;;;;;;10.57;8.80;;;28.00;1.00;;;;;;5089881;28;20081;-80
2022/07/25 07:03:36;;;;;;;9.20;8.40;;;28.00;1.00;;;;;;5090451;28;20032;-80
2022/07/25 07:06:05;;;;;;;9.63;8.73;;;28.10;1.00;;;;;;5089285;28;20541;-80
2022/07/25 07:08:31;;;;;;;10.45;8.32;;;28.20;1.00;;;;;;5089388;28;20044;-80
2022/07/25 07:10:56;;;;;;;8.88;7.65;;;28.40;1.00;;;;;;5088868;28;20225;-80
2022/07/25 07:13:22;;;;;;;9.27;8.38;;;28.40;1.00;;;;;;5089547;28;20064;-80
2022/07/25 07:15:49;;;;;;;9.73;8.25;;;28.40;1.00;;;;;;5091296;28;20025;-80
2022/07/25 07:18:19;;;;;;;8.77;7.85;;;28.60;1.00;;;;;;5088591;28;20036;-80
2022/07/25 07:20:46;;;;;;;8.60;7.90;;;28.70;1.00;;;;;;5089236;28;20050;-80
2022/07/25 07:23:11;;;;;;;9.43;8.52;;;28.80;1.00;;;;;;5088855;28;20350;-80
2022/07/25 07:25:37;;;;;;;9.15;8.25;;;29.00;1.00;;;;;;5091716;28;20035;-80
2022/07/25 07:28:03;;;;;;;8.95;8.15;;;29.20;1.00;;;;;;5093555;28;20549;-79
2022/07/25 07:30:29;;;;;;;9.23;8.00;;;29.30;1.00;;;;;;5093539;28;20058;-80
2022/07/25 07:32:55;;;;;;;9.63;8.50;;;29.30;1.00;;;;;;5092424;28;20020;-80
2022/07/25 07:35:21;;;;;;;11.00;8.15;;;29.30;1.00;;;;;;5091436;28;20024;-80
2022/07/25 07:37:47;;;;;;;9.00;8.07;;;29.30;1.00;;;;;;5074157;28;20036;-80
2022/07/25 07:40:14;;;;;;;8.40;7.50;;;29.40;1.00;;;;;;5092419;28;20034;-80
2022/07/25 07:42:42;;;;;;;12.02;7.95;;;29.30;1.00;;;;;;5094347;28;20035;-80
2022/07/25 07:45:22;;;;;;;8.82;8.00;;;29.30;1.00;;;;;;5092403;28;20039;-80
2022/07/25 07:47:50;;;;;;;8.70;7.90;;;29.50;1.00;;;;;;5091862;28;20036;-80
2022/07/25 07:50:17;;;;;;;8.57;7.50;;;29.50;1.00;;;;;;5092177;28;20068;-80
2022/07/25 07:52:44;;;;;;;9.30;8.43;;;29.50;1.00;;;;;;5091928;28;20434;-80
2022/07/25 07:57:55;;;;;;;9.68;8.35;;;29.80;1.00;;;;;;5090217;28;20422;-80
2022/07/25 08:00:21;;;;;;;8.55;7.75;;;29.80;1.00;;;;;;5090576;28;20416;-80
2022/07/25 08:02:50;;;;;;;9.63;8.00;;;29.90;1.00;;;;;;5091492;28;20020;-80
2022/07/25 08:05:25;;;;;;;10.38;8.60;;;30.00;1.00;;;;;;5092244;28;20035;-80
2022/07/25 08:07:52;;;;;;;8.50;7.72;;;30.00;1.00;;;;;;5092103;28;20020;-80
2022/07/25 08:10:23;;;;;;;8.60;7.57;;;30.00;1.00;;;;;;5091345;28;20754;-79
2022/07/25 08:12:49;;;;;;;9.05;8.10;;;29.90;1.00;;;;;;5094336;28;20016;-80
2022/07/25 08:15:16;;;;;;;8.55;7.57;;;30.00;1.00;;;;;;5090152;28;20031;-80
2022/07/25 08:17:43;;;;;;;8.57;7.80;;;30.10;1.00;;;;;;5091303;28;20028;-80
2022/07/25 08:20:09;;;;;;;9.40;8.50;;;30.30;1.00;;;;;;5097638;28;20451;-80
2022/07/25 08:22:37;;;;;;;9.27;8.00;;;30.20;1.00;;;;;;5097349;28;20142;-80
2022/07/25 08:25:03;;;;;;;10.35;8.30;;;30.40;1.00;;;;;;5094539;28;20046;-80
2022/07/25 08:27:29;;;;;;;9.63;7.80;;;30.50;1.00;;;;;;5095444;28;20040;-79
2022/07/25 08:29:54;;;;;;;8.60;7.80;;;30.50;1.00;;;;;;5091451;28;20055;-81
2022/07/25 08:32:20;;;;;;;8.95;8.15;;;30.50;1.00;;;;;;5090954;28;20031;-80
2022/07/25 08:34:46;;;;;;;9.05;8.07;;;30.80;1.00;;;;;;5073292;28;20043;-80
2022/07/25 08:37:11;;;;;;;9.95;7.72;;;30.90;1.00;;;;;;5090422;28;20047;-80
2022/07/25 08:39:37;;;;;;;9.18;8.00;;;31.20;1.00;;;;;;5093258;28;20036;-80
2022/07/25 08:42:03;;;;;;;9.63;7.85;;;31.30;1.00;;;;;;5091062;28;20054;-80
2022/07/25 08:44:33;;;;;;;9.82;8.15;;;31.40;1.00;;;;;;5090887;28;20108;-80
2022/07/25 08:46:59;;;;;;;9.63;7.55;;;31.50;1.00;;;;;;5091617;28;20028;-80
2022/07/25 08:49:27;;;;;;;8.32;7.43;;;31.50;1.00;;;;;;5090548;28;20438;-81
2022/07/25 08:51:55;;;;;;;8.70;7.47;;;31.60;1.00;;;;;;5089259;28;20020;-80
2022/07/25 08:54:24;;;;;;;8.98;7.75;;;31.70;1.00;;;;;;5089188;28;20047;-80
2022/07/25 08:56:50;;;;;;;9.60;7.65;;;31.70;1.00;;;;;;5090736;28;20032;-80
2022/07/25 08:59:15;;;;;;;8.85;7.30;;;31.70;1.00;;;;;;5090665;28;20028;-80
2022/07/25 09:01:41;;;;;;;9.52;7.50;;;31.90;1.00;;;;;;5091126;28;20028;-80
2022/07/25 09:04:08;;;;;;;8.32;7.53;;;31.90;1.00;;;;;;5091334;28;20032;-81
2022/07/25 09:06:34;;;;;;;8.57;7.80;;;32.10;1.00;;;;;;5092400;28;20016;-81
2022/07/25 09:09:04;;;;;;;10.00;7.60;;;32.30;1.00;;;;;;5090520;28;20119;-80
2022/07/25 09:11:35;;;;;;;8.73;7.82;;;32.20;1.00;;;;;;5090367;28;20028;-80
2022/07/25 09:14:02;;;;;;;10.52;7.70;;;32.30;1.00;;;;;;5090217;28;20119;-81
2022/07/25 09:16:30;;;;;;;9.73;8.00;;;32.70;1.00;;;;;;5090507;28;20024;-81
2022/07/25 09:19:15;;;;;;;8.50;7.70;;;32.80;1.00;;;;;;5092600;28;20036;-80
2022/07/25 09:21:43;;;;;;;8.30;7.50;;;32.90;1.00;;;;;;5090935;28;20426;-80
2022/07/25 09:24:09;;;;;;;10.43;7.70;;;32.90;1.00;;;;;;5089823;28;20064;-80
2022/07/25 09:26:45;;;;;;;8.20;7.30;;;33.10;1.00;;;;;;5090755;28;20069;-81
2022/07/25 09:29:23;;;;;;;8.98;7.57;;;33.30;1.00;;;;;;5089524;28;20044;-80
2022/07/25 09:31:49;;;;;;;7.93;7.25;;;33.00;1.00;;;;;;5088757;28;20028;-81
2022/07/25 09:34:28;;;;;;;8.20;7.40;;;33.00;1.00;;;;;;5090194;28;20056;-81
2022/07/25 09:36:54;;;;;;;7.65;6.95;;;33.10;1.00;;;;;;5088604;28;20472;-80
2022/07/25 09:39:20;;;;;;;7.72;7.00;;;33.30;1.00;;;;;;5090220;28;20115;-80
2022/07/25 09:41:48;;;;;;;7.47;6.88;;;33.40;1.00;;;;;;5071877;28;20158;-80
2022/07/25 09:44:18;;;;;;;7.88;7.18;;;33.30;1.00;;;;;;5089703;28;20024;-81
2022/07/25 09:46:44;;;;;;;8.30;7.50;;;33.60;1.00;;;;;;5089855;28;20154;-80
2022/07/25 09:49:13;;;;;;;9.13;7.40;;;34.00;1.00;;;;;;5089957;28;20126;-80
2022/07/25 09:51:39;;;;;;;9.25;7.40;;;33.90;1.00;;;;;;5090907;28;20480;-80
2022/07/25 09:54:05;;;;;;;7.95;7.20;;;34.00;1.00;;;;;;5089413;28;20066;-81
2022/07/25 09:56:31;;;;;;;8.70;7.35;;;34.30;1.00;;;;;;5089767;28;20078;-81
2022/07/25 09:58:57;;;;;;;7.13;6.43;;;34.40;1.00;;;;;;5089700;28;20036;-81
2022/07/25 10:01:32;;;;;;;7.47;6.82;;;34.30;1.00;;;;;;5090598;28;20161;-80
2022/07/25 10:04:17;;;;;;;7.47;6.82;;;34.30;1.00;;;;;;5087731;28;20059;-81
2022/07/25 10:06:56;;;;;;;9.07;7.13;;;34.30;1.00;;;;;;5090246;28;20063;-81
2022/07/25 10:09:22;;;;;;;8.05;7.35;;;34.70;1.00;;;;;;5089950;28;20047;-81
2022/07/25 10:12:08;;;;;;;8.43;7.63;;;34.70;1.00;;;;;;5088276;28;20077;-81
2022/07/25 10:14:35;;;;;;;7.65;6.93;;;34.70;1.00;;;;;;5089678;28;20036;-81
2022/07/25 10:17:02;;;;;;;7.60;6.82;;;34.80;1.00;;;;;;5089974;28;20028;-80
2022/07/25 10:19:41;;;;;;;9.05;7.38;;;34.90;1.00;;;;;;5089263;28;20553;-81
2022/07/25 10:22:07;;;;;;;7.90;7.10;;;34.70;1.00;;;;;;5090247;28;20012;-81
2022/07/25 10:24:34;;;;;;;8.57;7.82;;;34.90;1.00;;;;;;5091112;28;20028;-81
2022/07/25 10:27:07;;;;;;;7.95;7.10;;;35.00;1.00;;;;;;5089143;28;20031;-81
2022/07/25 10:29:34;;;;;;;7.85;7.07;;;35.40;1.00;;;;;;5089403;28;20051;-81
2022/07/25 10:32:09;;;;;;;7.90;7.30;;;35.60;1.00;;;;;;5089261;28;20433;-81
2022/07/25 10:34:35;;;;;;;8.30;7.50;;;35.40;1.00;;;;;;5089526;28;20016;-81
2022/07/25 10:37:11;;;;;;;8.32;7.53;;;35.60;1.00;;;;;;5090275;28;20472;-81
2022/07/25 10:39:43;;;;;;;8.82;7.93;;;35.60;1.00;;;;;;5089129;28;20047;-81
2022/07/25 10:42:13;;;;;;;8.40;7.70;;;35.90;1.00;;;;;;5089182;28;20032;-81
2022/07/25 10:44:45;;;;;;;8.40;7.55;;;35.90;1.00;;;;;;5089162;28;20021;-80
2022/07/25 10:47:13;;;;;;;8.57;7.78;;;35.80;1.00;;;;;;5089534;28;20024;-81
2022/07/25 10:49:41;;;;;;;9.57;8.30;;;36.00;1.00;;;;;;5087687;28;20037;-81
2022/07/25 10:52:14;;;;;;;8.55;7.85;;;36.20;1.00;;;;;;5089602;28;20020;-81
2022/07/25 10:54:39;;;;;;;9.13;7.78;;;36.50;1.00;;;;;;5089485;28;20020;-81
2022/07/25 10:57:13;;;;;;;11.20;7.95;;;36.60;1.00;;;;;;5089341;28;20404;-81
2022/07/25 10:59:39;;;;;;;8.55;7.82;;;36.60;1.00;;;;;;5089739;28;20404;-81
2022/07/25 11:02:08;;;;;;;9.05;8.23;;;36.80;1.00;;;;;;5092905;28;20081;-81
2022/07/25 11:04:35;;;;;;;8.73;7.93;;;36.80;1.00;;;;;;5093235;28;20025;-80
2022/07/25 11:07:09;;;;;;;8.82;8.13;;;37.10;1.00;;;;;;5094203;28;20032;-81
2022/07/25 11:09:36;;;;;;;8.50;7.70;;;37.40;1.00;;;;;;5094441;28;20484;-81
2022/07/25 11:12:02;;;;;;;8.57;7.78;;;37.50;1.00;;;;;;5074841;28;20474;-81
2022/07/25 11:14:40;;;;;;;8.93;8.02;;;37.50;1.00;;;;;;5092782;28;20032;-81
2022/07/25 11:17:33;;;;;;;7.93;7.25;;;37.80;1.00;;;;;;5092380;28;20012;-81
2022/07/25 11:20:07;;;;;;;8.65;7.93;;;37.60;1.00;;;;;;5089702;28;20031;-81
2022/07/25 11:22:34;;;;;;;8.90;8.02;;;37.60;1.00;;;;;;5077826;28;20457;-81
2022/07/25 11:25:00;;;;;;;9.45;8.50;;;37.40;1.00;;;;;;5094483;28;20017;-81
2022/07/25 11:27:33;;;;;;;8.80;8.10;;;37.30;1.00;;;;;;5093567;28;20393;-81
2022/07/25 11:30:09;;;;;;;9.70;8.80;;;37.50;1.00;;;;;;5090712;28;20507;-81
2022/07/25 11:32:40;;;;;;;8.70;7.80;;;37.80;1.00;;;;;;5092075;28;20028;-81
2022/07/25 11:35:06;;;;;;;9.10;8.10;;;38.00;1.00;;;;;;5093100;28;20028;-81
2022/07/25 11:37:36;;;;;;;8.45;7.75;;;38.70;1.00;;;;;;5092542;28;20020;-81
2022/07/25 11:40:02;;;;;;;8.15;7.18;;;40.00;1.00;;;;;;5093506;28;20380;-81
2022/07/25 11:42:48;;;;;;;8.77;8.07;;;40.30;1.00;;;;;;5093481;28;20366;-81
2022/07/25 11:45:33;;;;;;;8.90;7.60;;;42.10;1.00;;;;;;5092628;28;20488;-81
2022/07/25 11:48:06;;;;;;;9.38;7.68;;;44.60;1.00;;;;;;5092085;28;20063;-81
2022/07/25 11:50:33;;;;;;;10.48;8.02;;;43.30;1.00;;;;;;5092253;28;20048;-81
2022/07/25 11:53:01;;;;;;;8.90;8.00;;;44.90;1.00;;;;;;5091763;28;20020;-81
2022/07/25 11:55:32;;;;;;;8.85;7.93;;;45.70;1.00;;;;;;5092151;28;20063;-82
2022/07/25 11:58:03;;;;;;;8.13;7.43;;;44.10;1.00;;;;;;5093320;28;20036;-81
2022/07/25 12:00:32;;;;;;;8.45;7.60;;;41.80;1.00;;;;;;5092713;28;20115;-81
2022/07/25 12:03:12;;;;;;;7.85;7.25;;;40.50;1.00;;;;;;5091250;28;20044;-81
2022/07/25 12:05:38;;;;;;;8.43;7.72;;;42.50;1.00;;;;;;5089446;28;20028;-81
2022/07/25 12:08:09;;;;;;;9.15;7.45;;;41.10;1.00;;;;;;5089882;28;20111;-81
2022/07/25 12:10:36;;;;;;;8.35;7.50;;;40.00;1.00;;;;;;5091566;28;20024;-81
2022/07/25 12:13:06;;;;;;;8.00;7.32;;;39.70;1.00;;;;;;5092834;28;20102;-81
2022/07/25 12:15:35;;;;;;;8.13;7.43;;;40.20;1.00;;;;;;5093129;28;20388;-81
2022/07/25 12:18:02;;;;;;;8.80;8.00;;;40.50;1.00;;;;;;5091295;28;20487;-81
2022/07/25 12:20:30;;;;;;;8.50;7.78;;;38.70;1.00;;;;;;5091217;28;20111;-81
2022/07/25 12:22:59;;;;;;;11.07;7.97;;;38.30;1.00;;;;;;5091244;28;20024;-81
2022/07/25 12:25:24;;;;;;;9.23;8.43;;;37.50;1.00;;;;;;5075760;28;20107;-81
2022/07/25 12:27:51;;;;;;;9.07;8.30;;;37.20;1.00;;;;;;5093070;28;20091;-81
2022/07/25 12:30:17;;;;;;;8.88;8.00;;;37.10;1.00;;;;;;5090417;28;20047;-81
2022/07/25 12:32:43;;;;;;;9.40;8.13;;;36.80;1.00;;;;;;5090793;28;20036;-81
2022/07/25 12:35:11;;;;;;;8.23;7.53;;;36.90;1.00;;;;;;5091966;28;20032;-81
2022/07/25 12:37:37;;;;;;;8.52;7.80;;;36.70;1.00;;;;;;5091034;28;20024;-81
2022/07/25 12:40:04;;;;;;;8.45;7.75;;;36.70;1.00;;;;;;5092524;28;20115;-81
2022/07/25 12:42:30;;;;;;;8.90;8.02;;;36.60;1.00;;;;;;5092368;28;20032;-81
2022/07/25 12:44:56;;;;;;;9.57;7.63;;;37.20;1.00;;;;;;5091556;28;20086;-81
2022/07/25 12:47:23;;;;;;;9.00;8.10;;;37.20;1.00;;;;;;5089260;28;20032;-81
2022/07/25 12:49:48;;;;;;;8.70;7.97;;;37.30;1.00;;;;;;5091010;28;20044;-81
2022/07/25 12:52:14;;;;;;;9.13;7.97;;;37.30;1.00;;;;;;5091070;28;20506;-81
2022/07/25 12:54:40;;;;;;;9.27;8.25;;;37.60;1.00;;;;;;5092972;28;20037;-81
2022/07/25 12:57:06;;;;;;;8.70;7.82;;;37.30;1.00;;;;;;5090773;28;20031;-81
2022/07/25 12:59:32;;;;;;;9.43;7.97;;;37.60;1.00;;;;;;5091075;28;20028;-81
2022/07/25 13:01:57;;;;;;;10.98;8.30;;;39.50;1.00;;;;;;5090554;28;20082;-81